sensor_id;sensor_type;location;lat;lon;timestamp;P1;durP1;ratioP1;P2;durP2;ratioP2
46589;SDS011;32313;48.722;9.362;2023-03-14T00:00:47;3.90;;;3.60;;
46589;SDS011;32313;48.722;9.362;2023-03-14T00:03:12;3.80;;;3.50;;
46589;SDS011;32313;48.722;9.362;2023-03-14T00:05:38;4.57;;;4.17;;
46589;SDS011;32313;48.722;9.362;2023-03-14T00:08:04;3.73;;;3.47;;
46589;SDS011;32313;48.722;9.362;2023-03-14T00:10:31;4.03;;;3.73;;
46589;SDS011;32313;48.722;9.362;2023-03-14T00:12:56;4.20;;;3.90;;
46589;SDS011;32313;48.722;9.362;2023-03-14T00:15:22;4.37;;;3.97;;
46589;SDS011;32313;48.722;9.362;2023-03-14T00:17:48;3.40;;;3.10;;
46589;SDS011;32313;48.722;9.362;2023-03-14T00:20:13;3.90;;;3.60;;
46589;SDS011;32313;48.722;9.362;2023-03-14T00:22:40;4.03;;;3.73;;
46589;SDS011;32313;48.722;9.362;2023-03-14T00:25:06;3.90;;;3.60;;
46589;SDS011;32313;48.722;9.362;2023-03-14T00:27:33;3.40;;;3.20;;
46589;SDS011;32313;48.722;9.362;2023-03-14T00:29:59;3.90;;;3.60;;
46589;SDS011;32313;48.722;9.362;2023-03-14T00:32:25;3.77;;;3.47;;
46589;SDS011;32313;48.722;9.362;2023-03-14T00:34:51;3.60;;;3.40;;
46589;SDS011;32313;48.722;9.362;2023-03-14T00:37:17;3.77;;;3.47;;
46589;SDS011;32313;48.722;9.362;2023-03-14T00:39:43;4.10;;;3.67;;
46589;SDS011;32313;48.722;9.362;2023-03-14T00:42:09;3.93;;;3.63;;
46589;SDS011;32313;48.722;9.362;2023-03-14T00:44:35;3.63;;;3.43;;
46589;SDS011;32313;48.722;9.362;2023-03-14T00:47:00;4.20;;;3.63;;
46589;SDS011;32313;48.722;9.362;2023-03-14T00:49:26;4.30;;;4.00;;
46589;SDS011;32313;48.722;9.362;2023-03-14T00:51:52;3.40;;;3.20;;
46589;SDS011;32313;48.722;9.362;2023-03-14T00:54:18;3.87;;;3.60;;
46589;SDS011;32313;48.722;9.362;2023-03-14T00:56:44;3.70;;;3.50;;
46589;SDS011;32313;48.722;9.362;2023-03-14T00:59:10;4.40;;;4.10;;
46589;SDS011;32313;48.722;9.362;2023-03-14T01:01:36;4.43;;;4.13;;
46589;SDS011;32313;48.722;9.362;2023-03-14T01:04:05;4.77;;;4.37;;
46589;SDS011;32313;48.722;9.362;2023-03-14T01:06:30;4.67;;;4.37;;
46589;SDS011;32313;48.722;9.362;2023-03-14T01:08:56;4.30;;;4.00;;
46589;SDS011;32313;48.722;9.362;2023-03-14T01:11:27;4.17;;;3.87;;
46589;SDS011;32313;48.722;9.362;2023-03-14T01:13:56;3.70;;;3.50;;
46589;SDS011;32313;48.722;9.362;2023-03-14T01:16:23;3.60;;;3.40;;
46589;SDS011;32313;48.722;9.362;2023-03-14T01:18:50;4.23;;;3.70;;
46589;SDS011;32313;48.722;9.362;2023-03-14T01:21:18;3.87;;;3.57;;
46589;SDS011;32313;48.722;9.362;2023-03-14T01:23:46;4.20;;;3.80;;
46589;SDS011;32313;48.722;9.362;2023-03-14T01:26:15;3.83;;;3.53;;
46589;SDS011;32313;48.722;9.362;2023-03-14T01:28:44;3.60;;;3.40;;
46589;SDS011;32313;48.722;9.362;2023-03-14T01:31:11;4.37;;;4.07;;
46589;SDS011;32313;48.722;9.362;2023-03-14T01:33:38;3.80;;;3.57;;
46589;SDS011;32313;48.722;9.362;2023-03-14T01:36:05;4.60;;;4.20;;
46589;SDS011;32313;48.722;9.362;2023-03-14T01:38:32;4.47;;;4.17;;
46589;SDS011;32313;48.722;9.362;2023-03-14T01:40:59;4.43;;;4.10;;
46589;SDS011;32313;48.722;9.362;2023-03-14T01:43:25;4.10;;;3.80;;
46589;SDS011;32313;48.722;9.362;2023-03-14T01:48:27;3.83;;;3.63;;
46589;SDS011;32313;48.722;9.362;2023-03-14T01:50:56;4.13;;;3.83;;
46589;SDS011;32313;48.722;9.362;2023-03-14T01:53:24;4.13;;;3.83;;
46589;SDS011;32313;48.722;9.362;2023-03-14T01:55:50;4.50;;;4.20;;
46589;SDS011;32313;48.722;9.362;2023-03-14T01:58:21;4.10;;;3.80;;
46589;SDS011;32313;48.722;9.362;2023-03-14T02:00:52;4.30;;;3.97;;
46589;SDS011;32313;48.722;9.362;2023-03-14T02:03:18;3.67;;;3.40;;
46589;SDS011;32313;48.722;9.362;2023-03-14T02:05:48;3.70;;;3.40;;
46589;SDS011;32313;48.722;9.362;2023-03-14T02:08:19;3.50;;;3.30;;
46589;SDS011;32313;48.722;9.362;2023-03-14T02:10:49;3.80;;;3.50;;
46589;SDS011;32313;48.722;9.362;2023-03-14T02:13:21;3.83;;;3.53;;
46589;SDS011;32313;48.722;9.362;2023-03-14T02:16:07;3.50;;;3.30;;
46589;SDS011;32313;48.722;9.362;2023-03-14T02:18:52;3.43;;;3.23;;
46589;SDS011;32313;48.722;9.362;2023-03-14T02:21:46;3.60;;;3.40;;
46589;SDS011;32313;48.722;9.362;2023-03-14T02:27:04;3.30;;;3.10;;
46589;SDS011;32313;48.722;9.362;2023-03-14T02:29:35;3.00;;;2.80;;
46589;SDS011;32313;48.722;9.362;2023-03-14T02:32:05;3.03;;;2.93;;
46589;SDS011;32313;48.722;9.362;2023-03-14T02:34:31;3.40;;;3.20;;
46589;SDS011;32313;48.722;9.362;2023-03-14T02:36:58;3.33;;;3.03;;
46589;SDS011;32313;48.722;9.362;2023-03-14T02:39:28;3.23;;;2.93;;
46589;SDS011;32313;48.722;9.362;2023-03-14T02:42:00;3.03;;;2.87;;
46589;SDS011;32313;48.722;9.362;2023-03-14T02:44:25;3.43;;;3.33;;
46589;SDS011;32313;48.722;9.362;2023-03-14T02:46:51;3.63;;;3.43;;
46589;SDS011;32313;48.722;9.362;2023-03-14T02:49:17;3.43;;;3.30;;
46589;SDS011;32313;48.722;9.362;2023-03-14T02:51:43;3.30;;;3.10;;
46589;SDS011;32313;48.722;9.362;2023-03-14T02:54:10;3.37;;;3.23;;
46589;SDS011;32313;48.722;9.362;2023-03-14T02:56:36;3.63;;;3.43;;
46589;SDS011;32313;48.722;9.362;2023-03-14T02:59:03;3.57;;;3.27;;
46589;SDS011;32313;48.722;9.362;2023-03-14T03:01:39;3.40;;;3.20;;
46589;SDS011;32313;48.722;9.362;2023-03-14T03:04:06;3.13;;;3.03;;
46589;SDS011;32313;48.722;9.362;2023-03-14T03:06:32;3.77;;;3.57;;
46589;SDS011;32313;48.722;9.362;2023-03-14T03:08:59;3.53;;;3.23;;
46589;SDS011;32313;48.722;9.362;2023-03-14T03:11:25;3.23;;;3.03;;
46589;SDS011;32313;48.722;9.362;2023-03-14T03:13:50;3.73;;;3.53;;
46589;SDS011;32313;48.722;9.362;2023-03-14T03:16:16;3.27;;;3.17;;
46589;SDS011;32313;48.722;9.362;2023-03-14T03:18:42;2.90;;;2.80;;
46589;SDS011;32313;48.722;9.362;2023-03-14T03:21:07;3.40;;;3.20;;
46589;SDS011;32313;48.722;9.362;2023-03-14T03:23:34;3.97;;;3.40;;
46589;SDS011;32313;48.722;9.362;2023-03-14T03:26:00;3.87;;;3.60;;
46589;SDS011;32313;48.722;9.362;2023-03-14T03:28:27;4.00;;;3.73;;
46589;SDS011;32313;48.722;9.362;2023-03-14T03:30:53;3.60;;;3.40;;
46589;SDS011;32313;48.722;9.362;2023-03-14T03:33:19;4.17;;;3.83;;
46589;SDS011;32313;48.722;9.362;2023-03-14T03:35:47;3.63;;;3.40;;
46589;SDS011;32313;48.722;9.362;2023-03-14T03:38:18;3.80;;;3.60;;
46589;SDS011;32313;48.722;9.362;2023-03-14T03:40:47;3.60;;;3.40;;
46589;SDS011;32313;48.722;9.362;2023-03-14T03:43:13;3.73;;;3.53;;
46589;SDS011;32313;48.722;9.362;2023-03-14T03:45:45;3.80;;;3.60;;
46589;SDS011;32313;48.722;9.362;2023-03-14T03:48:12;3.70;;;3.40;;
46589;SDS011;32313;48.722;9.362;2023-03-14T03:50:43;3.20;;;3.00;;
46589;SDS011;32313;48.722;9.362;2023-03-14T03:53:09;3.53;;;3.30;;
46589;SDS011;32313;48.722;9.362;2023-03-14T03:55:35;3.70;;;3.40;;
46589;SDS011;32313;48.722;9.362;2023-03-14T03:58:01;4.20;;;3.90;;
46589;SDS011;32313;48.722;9.362;2023-03-14T04:00:26;3.90;;;3.60;;
46589;SDS011;32313;48.722;9.362;2023-03-14T04:02:52;3.73;;;3.53;;
46589;SDS011;32313;48.722;9.362;2023-03-14T04:05:23;3.70;;;3.50;;
46589;SDS011;32313;48.722;9.362;2023-03-14T04:08:02;3.93;;;3.63;;
46589;SDS011;32313;48.722;9.362;2023-03-14T04:10:29;3.70;;;3.40;;
46589;SDS011;32313;48.722;9.362;2023-03-14T04:13:03;3.53;;;3.30;;
46589;SDS011;32313;48.722;9.362;2023-03-14T04:15:31;3.97;;;3.77;;
46589;SDS011;32313;48.722;9.362;2023-03-14T04:18:00;4.73;;;4.33;;
46589;SDS011;32313;48.722;9.362;2023-03-14T04:20:26;4.60;;;4.30;;
46589;SDS011;32313;48.722;9.362;2023-03-14T04:22:53;4.70;;;4.30;;
46589;SDS011;32313;48.722;9.362;2023-03-14T04:25:18;4.47;;;4.20;;
46589;SDS011;32313;48.722;9.362;2023-03-14T04:27:49;5.07;;;3.80;;
46589;SDS011;32313;48.722;9.362;2023-03-14T04:30:20;4.37;;;3.97;;
46589;SDS011;32313;48.722;9.362;2023-03-14T04:32:52;4.27;;;3.93;;
46589;SDS011;32313;48.722;9.362;2023-03-14T04:35:20;5.17;;;4.67;;
46589;SDS011;32313;48.722;9.362;2023-03-14T04:37:45;3.83;;;3.60;;
46589;SDS011;32313;48.722;9.362;2023-03-14T04:40:15;4.20;;;3.90;;
46589;SDS011;32313;48.722;9.362;2023-03-14T04:42:41;4.53;;;4.03;;
46589;SDS011;32313;48.722;9.362;2023-03-14T04:45:07;3.93;;;3.63;;
46589;SDS011;32313;48.722;9.362;2023-03-14T04:47:34;4.53;;;4.20;;
46589;SDS011;32313;48.722;9.362;2023-03-14T04:50:06;5.30;;;4.50;;
46589;SDS011;32313;48.722;9.362;2023-03-14T04:52:33;9.47;;;4.83;;
46589;SDS011;32313;48.722;9.362;2023-03-14T04:54:59;4.93;;;4.53;;
46589;SDS011;32313;48.722;9.362;2023-03-14T04:57:26;4.77;;;3.93;;
46589;SDS011;32313;48.722;9.362;2023-03-14T04:59:52;4.90;;;4.10;;
46589;SDS011;32313;48.722;9.362;2023-03-14T05:02:40;5.60;;;4.93;;
46589;SDS011;32313;48.722;9.362;2023-03-14T05:05:24;4.93;;;4.53;;
46589;SDS011;32313;48.722;9.362;2023-03-14T05:08:05;5.50;;;4.23;;
46589;SDS011;32313;48.722;9.362;2023-03-14T05:10:55;5.40;;;4.80;;
46589;SDS011;32313;48.722;9.362;2023-03-14T05:13:39;4.67;;;4.27;;
46589;SDS011;32313;48.722;9.362;2023-03-14T05:16:18;4.63;;;4.23;;
46589;SDS011;32313;48.722;9.362;2023-03-14T05:18:50;4.53;;;4.10;;
46589;SDS011;32313;48.722;9.362;2023-03-14T05:21:51;4.73;;;4.33;;
46589;SDS011;32313;48.722;9.362;2023-03-14T05:24:35;4.97;;;4.53;;
46589;SDS011;32313;48.722;9.362;2023-03-14T05:27:01;4.83;;;4.40;;
46589;SDS011;32313;48.722;9.362;2023-03-14T05:29:53;5.03;;;4.63;;
46589;SDS011;32313;48.722;9.362;2023-03-14T05:32:35;8.80;;;5.77;;
46589;SDS011;32313;48.722;9.362;2023-03-14T05:35:21;4.40;;;4.13;;
46589;SDS011;32313;48.722;9.362;2023-03-14T05:37:55;4.40;;;4.10;;
46589;SDS011;32313;48.722;9.362;2023-03-14T05:40:35;5.07;;;4.47;;
46589;SDS011;32313;48.722;9.362;2023-03-14T05:43:07;5.57;;;5.10;;
46589;SDS011;32313;48.722;9.362;2023-03-14T05:46:05;4.03;;;3.70;;
46589;SDS011;32313;48.722;9.362;2023-03-14T05:48:41;5.43;;;4.93;;
46589;SDS011;32313;48.722;9.362;2023-03-14T05:51:13;5.47;;;4.13;;
46589;SDS011;32313;48.722;9.362;2023-03-14T05:54:12;5.70;;;4.70;;
46589;SDS011;32313;48.722;9.362;2023-03-14T05:57:02;7.50;;;4.10;;
46589;SDS011;32313;48.722;9.362;2023-03-14T05:59:37;4.47;;;4.03;;
46589;SDS011;32313;48.722;9.362;2023-03-14T06:02:22;8.47;;;4.60;;
46589;SDS011;32313;48.722;9.362;2023-03-14T06:04:57;4.30;;;4.00;;
46589;SDS011;32313;48.722;9.362;2023-03-14T06:07:23;4.00;;;3.67;;
46589;SDS011;32313;48.722;9.362;2023-03-14T06:09:49;4.77;;;4.47;;
46589;SDS011;32313;48.722;9.362;2023-03-14T06:12:16;5.30;;;4.50;;
46589;SDS011;32313;48.722;9.362;2023-03-14T06:14:44;5.17;;;4.73;;
46589;SDS011;32313;48.722;9.362;2023-03-14T06:17:10;6.33;;;4.50;;
46589;SDS011;32313;48.722;9.362;2023-03-14T06:19:44;5.73;;;4.83;;
46589;SDS011;32313;48.722;9.362;2023-03-14T06:22:11;4.93;;;4.43;;
46589;SDS011;32313;48.722;9.362;2023-03-14T06:24:38;6.00;;;5.43;;
46589;SDS011;32313;48.722;9.362;2023-03-14T06:27:03;5.13;;;4.63;;
46589;SDS011;32313;48.722;9.362;2023-03-14T06:29:30;5.83;;;4.80;;
46589;SDS011;32313;48.722;9.362;2023-03-14T06:31:56;5.00;;;4.63;;
46589;SDS011;32313;48.722;9.362;2023-03-14T06:34:22;7.50;;;4.20;;
46589;SDS011;32313;48.722;9.362;2023-03-14T06:36:47;6.53;;;4.53;;
46589;SDS011;32313;48.722;9.362;2023-03-14T06:39:14;5.73;;;4.60;;
46589;SDS011;32313;48.722;9.362;2023-03-14T06:41:43;5.93;;;4.20;;
46589;SDS011;32313;48.722;9.362;2023-03-14T06:44:09;5.03;;;4.37;;
46589;SDS011;32313;48.722;9.362;2023-03-14T06:46:36;4.50;;;4.07;;
46589;SDS011;32313;48.722;9.362;2023-03-14T06:49:02;5.27;;;4.30;;
46589;SDS011;32313;48.722;9.362;2023-03-14T06:51:28;4.27;;;3.90;;
46589;SDS011;32313;48.722;9.362;2023-03-14T06:53:53;5.37;;;4.83;;
46589;SDS011;32313;48.722;9.362;2023-03-14T06:56:22;5.07;;;4.67;;
46589;SDS011;32313;48.722;9.362;2023-03-14T06:58:48;5.70;;;4.20;;
46589;SDS011;32313;48.722;9.362;2023-03-14T07:01:26;3.97;;;3.67;;
46589;SDS011;32313;48.722;9.362;2023-03-14T07:03:59;4.43;;;4.07;;
46589;SDS011;32313;48.722;9.362;2023-03-14T07:06:25;3.83;;;3.53;;
46589;SDS011;32313;48.722;9.362;2023-03-14T07:08:51;6.07;;;3.77;;
46589;SDS011;32313;48.722;9.362;2023-03-14T07:11:17;4.07;;;3.70;;
46589;SDS011;32313;48.722;9.362;2023-03-14T07:13:43;3.60;;;3.27;;
46589;SDS011;32313;48.722;9.362;2023-03-14T07:16:09;3.47;;;3.27;;
46589;SDS011;32313;48.722;9.362;2023-03-14T07:18:36;4.87;;;3.50;;
46589;SDS011;32313;48.722;9.362;2023-03-14T07:21:04;3.73;;;3.00;;
46589;SDS011;32313;48.722;9.362;2023-03-14T07:23:35;4.50;;;3.20;;
46589;SDS011;32313;48.722;9.362;2023-03-14T07:26:01;3.13;;;2.80;;
46589;SDS011;32313;48.722;9.362;2023-03-14T07:28:28;3.23;;;2.93;;
46589;SDS011;32313;48.722;9.362;2023-03-14T07:31:00;3.47;;;3.17;;
46589;SDS011;32313;48.722;9.362;2023-03-14T07:33:30;4.07;;;3.30;;
46589;SDS011;32313;48.722;9.362;2023-03-14T07:35:56;12.37;;;3.63;;
46589;SDS011;32313;48.722;9.362;2023-03-14T07:38:22;13.40;;;3.60;;
46589;SDS011;32313;48.722;9.362;2023-03-14T07:41:16;3.87;;;2.87;;
46589;SDS011;32313;48.722;9.362;2023-03-14T07:43:57;2.87;;;2.67;;
46589;SDS011;32313;48.722;9.362;2023-03-14T07:46:24;3.40;;;2.80;;
46589;SDS011;32313;48.722;9.362;2023-03-14T07:48:50;2.47;;;2.27;;
46589;SDS011;32313;48.722;9.362;2023-03-14T07:51:15;3.17;;;2.10;;
46589;SDS011;32313;48.722;9.362;2023-03-14T07:53:41;2.77;;;2.50;;
46589;SDS011;32313;48.722;9.362;2023-03-14T07:56:08;3.60;;;2.50;;
46589;SDS011;32313;48.722;9.362;2023-03-14T07:58:34;3.23;;;2.43;;
46589;SDS011;32313;48.722;9.362;2023-03-14T08:01:00;2.87;;;2.67;;
46589;SDS011;32313;48.722;9.362;2023-03-14T08:03:25;2.30;;;2.10;;
46589;SDS011;32313;48.722;9.362;2023-03-14T08:05:51;2.53;;;2.20;;
46589;SDS011;32313;48.722;9.362;2023-03-14T08:08:17;3.13;;;2.10;;
46589;SDS011;32313;48.722;9.362;2023-03-14T08:10:43;2.80;;;2.33;;
46589;SDS011;32313;48.722;9.362;2023-03-14T08:13:09;2.23;;;2.03;;
46589;SDS011;32313;48.722;9.362;2023-03-14T08:15:35;2.43;;;2.10;;
46589;SDS011;32313;48.722;9.362;2023-03-14T08:18:02;2.20;;;2.00;;
46589;SDS011;32313;48.722;9.362;2023-03-14T08:20:28;2.90;;;2.20;;
46589;SDS011;32313;48.722;9.362;2023-03-14T08:22:58;2.43;;;2.27;;
46589;SDS011;32313;48.722;9.362;2023-03-14T08:25:25;3.33;;;2.43;;
46589;SDS011;32313;48.722;9.362;2023-03-14T08:27:52;2.83;;;2.63;;
46589;SDS011;32313;48.722;9.362;2023-03-14T08:30:18;2.87;;;2.67;;
46589;SDS011;32313;48.722;9.362;2023-03-14T08:32:45;2.30;;;2.20;;
46589;SDS011;32313;48.722;9.362;2023-03-14T08:35:11;2.23;;;2.13;;
46589;SDS011;32313;48.722;9.362;2023-03-14T08:37:37;7.63;;;6.17;;
46589;SDS011;32313;48.722;9.362;2023-03-14T08:40:04;3.63;;;2.43;;
46589;SDS011;32313;48.722;9.362;2023-03-14T08:42:35;4.03;;;2.73;;
46589;SDS011;32313;48.722;9.362;2023-03-14T08:45:02;2.70;;;2.50;;
46589;SDS011;32313;48.722;9.362;2023-03-14T08:47:28;3.03;;;2.00;;
46589;SDS011;32313;48.722;9.362;2023-03-14T08:49:54;2.40;;;2.30;;
46589;SDS011;32313;48.722;9.362;2023-03-14T08:52:20;2.27;;;2.07;;
46589;SDS011;32313;48.722;9.362;2023-03-14T08:54:46;3.20;;;2.57;;
46589;SDS011;32313;48.722;9.362;2023-03-14T08:57:12;2.20;;;2.00;;
46589;SDS011;32313;48.722;9.362;2023-03-14T08:59:37;1.90;;;1.80;;
46589;SDS011;32313;48.722;9.362;2023-03-14T09:02:03;2.73;;;1.90;;
46589;SDS011;32313;48.722;9.362;2023-03-14T09:04:30;1.53;;;1.47;;
46589;SDS011;32313;48.722;9.362;2023-03-14T09:06:56;2.03;;;1.43;;
46589;SDS011;32313;48.722;9.362;2023-03-14T09:09:23;2.43;;;1.70;;
46589;SDS011;32313;48.722;9.362;2023-03-14T09:11:50;1.30;;;1.30;;
46589;SDS011;32313;48.722;9.362;2023-03-14T09:14:15;1.40;;;1.30;;
46589;SDS011;32313;48.722;9.362;2023-03-14T09:16:41;2.93;;;1.40;;
46589;SDS011;32313;48.722;9.362;2023-03-14T09:19:07;1.13;;;1.10;;
46589;SDS011;32313;48.722;9.362;2023-03-14T09:21:32;1.23;;;1.20;;
46589;SDS011;32313;48.722;9.362;2023-03-14T09:23:59;1.20;;;1.20;;
46589;SDS011;32313;48.722;9.362;2023-03-14T09:26:25;1.40;;;1.30;;
46589;SDS011;32313;48.722;9.362;2023-03-14T09:28:51;1.27;;;1.23;;
46589;SDS011;32313;48.722;9.362;2023-03-14T09:31:17;1.57;;;1.47;;
46589;SDS011;32313;48.722;9.362;2023-03-14T09:33:42;1.57;;;1.40;;
46589;SDS011;32313;48.722;9.362;2023-03-14T09:36:09;1.20;;;1.20;;
46589;SDS011;32313;48.722;9.362;2023-03-14T09:38:35;1.60;;;1.50;;
46589;SDS011;32313;48.722;9.362;2023-03-14T09:41:02;1.70;;;1.60;;
46589;SDS011;32313;48.722;9.362;2023-03-14T09:43:35;1.50;;;1.40;;
46589;SDS011;32313;48.722;9.362;2023-03-14T09:46:01;1.83;;;1.50;;
46589;SDS011;32313;48.722;9.362;2023-03-14T09:48:29;1.70;;;1.60;;
46589;SDS011;32313;48.722;9.362;2023-03-14T09:50:58;1.57;;;1.47;;
46589;SDS011;32313;48.722;9.362;2023-03-14T09:53:29;1.90;;;1.47;;
46589;SDS011;32313;48.722;9.362;2023-03-14T09:56:10;2.97;;;1.43;;
46589;SDS011;32313;48.722;9.362;2023-03-14T09:59:00;1.50;;;1.40;;
46589;SDS011;32313;48.722;9.362;2023-03-14T10:01:31;1.60;;;1.50;;
46589;SDS011;32313;48.722;9.362;2023-03-14T10:04:02;1.73;;;1.50;;
46589;SDS011;32313;48.722;9.362;2023-03-14T10:06:38;2.10;;;1.57;;
46589;SDS011;32313;48.722;9.362;2023-03-14T10:09:04;1.70;;;1.60;;
46589;SDS011;32313;48.722;9.362;2023-03-14T10:11:31;2.93;;;1.90;;
46589;SDS011;32313;48.722;9.362;2023-03-14T10:16:45;2.00;;;1.90;;
46589;SDS011;32313;48.722;9.362;2023-03-14T10:19:14;2.27;;;2.07;;
46589;SDS011;32313;48.722;9.362;2023-03-14T10:21:43;2.27;;;2.17;;
46589;SDS011;32313;48.722;9.362;2023-03-14T10:24:19;1.70;;;1.60;;
46589;SDS011;32313;48.722;9.362;2023-03-14T10:26:53;1.83;;;1.73;;
46589;SDS011;32313;48.722;9.362;2023-03-14T10:29:20;1.93;;;1.73;;
46589;SDS011;32313;48.722;9.362;2023-03-14T10:31:57;1.60;;;1.50;;
46589;SDS011;32313;48.722;9.362;2023-03-14T10:34:28;1.30;;;1.30;;
46589;SDS011;32313;48.722;9.362;2023-03-14T10:37:05;1.30;;;1.20;;
46589;SDS011;32313;48.722;9.362;2023-03-14T10:42:05;1.87;;;1.30;;
46589;SDS011;32313;48.722;9.362;2023-03-14T10:44:38;1.20;;;1.10;;
46589;SDS011;32313;48.722;9.362;2023-03-14T10:47:04;1.97;;;1.10;;
46589;SDS011;32313;48.722;9.362;2023-03-14T10:49:32;2.50;;;1.50;;
46589;SDS011;32313;48.722;9.362;2023-03-14T10:52:12;2.30;;;1.10;;
46589;SDS011;32313;48.722;9.362;2023-03-14T10:55:11;1.27;;;1.17;;
46589;SDS011;32313;48.722;9.362;2023-03-14T10:57:38;2.07;;;1.13;;
46589;SDS011;32313;48.722;9.362;2023-03-14T11:00:14;1.20;;;1.20;;
46589;SDS011;32313;48.722;9.362;2023-03-14T11:02:47;1.27;;;1.20;;
46589;SDS011;32313;48.722;9.362;2023-03-14T11:08:07;1.60;;;1.33;;
46589;SDS011;32313;48.722;9.362;2023-03-14T11:11:27;1.80;;;1.50;;
46589;SDS011;32313;48.722;9.362;2023-03-14T11:13:56;1.63;;;1.53;;
46589;SDS011;32313;48.722;9.362;2023-03-14T11:16:50;1.57;;;1.57;;
46589;SDS011;32313;48.722;9.362;2023-03-14T11:19:32;1.77;;;1.67;;
46589;SDS011;32313;48.722;9.362;2023-03-14T11:22:08;1.90;;;1.80;;
46589;SDS011;32313;48.722;9.362;2023-03-14T11:24:55;1.73;;;1.63;;
46589;SDS011;32313;48.722;9.362;2023-03-14T11:27:41;1.67;;;1.67;;
46589;SDS011;32313;48.722;9.362;2023-03-14T11:32:55;2.10;;;2.00;;
46589;SDS011;32313;48.722;9.362;2023-03-14T11:35:34;1.90;;;1.80;;
46589;SDS011;32313;48.722;9.362;2023-03-14T11:40:53;2.20;;;2.10;;
46589;SDS011;32313;48.722;9.362;2023-03-14T11:46:13;2.13;;;1.90;;
46589;SDS011;32313;48.722;9.362;2023-03-14T11:48:57;2.13;;;2.03;;
46589;SDS011;32313;48.722;9.362;2023-03-14T11:51:33;2.30;;;2.20;;
46589;SDS011;32313;48.722;9.362;2023-03-14T11:56:48;2.03;;;1.93;;
46589;SDS011;32313;48.722;9.362;2023-03-14T11:59:27;1.93;;;1.90;;
46589;SDS011;32313;48.722;9.362;2023-03-14T12:02:21;2.30;;;2.20;;
46589;SDS011;32313;48.722;9.362;2023-03-14T12:10:38;2.20;;;2.10;;
46589;SDS011;32313;48.722;9.362;2023-03-14T12:13:10;2.00;;;1.80;;
46589;SDS011;32313;48.722;9.362;2023-03-14T12:15:39;2.00;;;1.90;;
46589;SDS011;32313;48.722;9.362;2023-03-14T12:18:21;1.93;;;1.83;;
46589;SDS011;32313;48.722;9.362;2023-03-14T12:20:56;2.13;;;2.03;;
46589;SDS011;32313;48.722;9.362;2023-03-14T12:23:28;2.03;;;1.93;;
46589;SDS011;32313;48.722;9.362;2023-03-14T12:28:37;2.17;;;2.10;;
46589;SDS011;32313;48.722;9.362;2023-03-14T12:50:20;2.10;;;2.00;;
46589;SDS011;32313;48.722;9.362;2023-03-14T12:55:53;2.37;;;2.27;;
46589;SDS011;32313;48.722;9.362;2023-03-14T13:01:21;2.33;;;2.13;;
46589;SDS011;32313;48.722;9.362;2023-03-14T13:03:51;2.23;;;2.03;;
46589;SDS011;32313;48.722;9.362;2023-03-14T13:11:54;1.90;;;1.80;;
46589;SDS011;32313;48.722;9.362;2023-03-14T13:14:25;1.80;;;1.70;;
46589;SDS011;32313;48.722;9.362;2023-03-14T13:16:53;1.50;;;1.40;;
46589;SDS011;32313;48.722;9.362;2023-03-14T13:19:20;1.73;;;1.50;;
46589;SDS011;32313;48.722;9.362;2023-03-14T13:21:49;1.70;;;1.60;;
46589;SDS011;32313;48.722;9.362;2023-03-14T13:24:21;1.77;;;1.67;;
46589;SDS011;32313;48.722;9.362;2023-03-14T13:26:47;2.33;;;1.67;;
46589;SDS011;32313;48.722;9.362;2023-03-14T13:31:48;1.93;;;1.83;;
46589;SDS011;32313;48.722;9.362;2023-03-14T13:34:15;2.07;;;1.87;;
46589;SDS011;32313;48.722;9.362;2023-03-14T13:36:42;1.70;;;1.60;;
46589;SDS011;32313;48.722;9.362;2023-03-14T13:39:18;2.13;;;2.03;;
46589;SDS011;32313;48.722;9.362;2023-03-14T13:41:47;2.00;;;1.90;;
46589;SDS011;32313;48.722;9.362;2023-03-14T13:44:15;5.90;;;2.37;;
46589;SDS011;32313;48.722;9.362;2023-03-14T13:46:57;2.10;;;2.00;;
46589;SDS011;32313;48.722;9.362;2023-03-14T13:49:25;2.87;;;2.40;;
46589;SDS011;32313;48.722;9.362;2023-03-14T13:51:54;3.20;;;2.47;;
46589;SDS011;32313;48.722;9.362;2023-03-14T13:54:21;3.80;;;2.70;;
46589;SDS011;32313;48.722;9.362;2023-03-14T13:56:48;2.73;;;2.30;;
46589;SDS011;32313;48.722;9.362;2023-03-14T13:59:24;4.63;;;3.40;;
46589;SDS011;32313;48.722;9.362;2023-03-14T14:01:51;2.50;;;2.30;;
46589;SDS011;32313;48.722;9.362;2023-03-14T14:04:19;2.80;;;2.50;;
46589;SDS011;32313;48.722;9.362;2023-03-14T14:06:56;2.30;;;2.20;;
46589;SDS011;32313;48.722;9.362;2023-03-14T14:09:24;2.80;;;2.60;;
46589;SDS011;32313;48.722;9.362;2023-03-14T14:12:02;3.07;;;2.77;;
46589;SDS011;32313;48.722;9.362;2023-03-14T14:17:05;2.30;;;2.10;;
46589;SDS011;32313;48.722;9.362;2023-03-14T14:19:33;2.60;;;2.40;;
46589;SDS011;32313;48.722;9.362;2023-03-14T14:22:00;3.13;;;2.53;;
46589;SDS011;32313;48.722;9.362;2023-03-14T14:24:28;3.10;;;2.67;;
46589;SDS011;32313;48.722;9.362;2023-03-14T14:27:41;2.40;;;2.20;;
46589;SDS011;32313;48.722;9.362;2023-03-14T14:30:21;2.53;;;2.37;;
46589;SDS011;32313;48.722;9.362;2023-03-14T14:33:06;3.03;;;2.80;;
46589;SDS011;32313;48.722;9.362;2023-03-14T14:35:50;2.77;;;2.57;;
46589;SDS011;32313;48.722;9.362;2023-03-14T14:38:17;2.87;;;2.57;;
46589;SDS011;32313;48.722;9.362;2023-03-14T14:40:45;4.97;;;2.90;;
46589;SDS011;32313;48.722;9.362;2023-03-14T14:43:21;2.97;;;2.70;;
46589;SDS011;32313;48.722;9.362;2023-03-14T14:45:53;3.40;;;3.00;;
46589;SDS011;32313;48.722;9.362;2023-03-14T14:48:24;2.90;;;2.70;;
46589;SDS011;32313;48.722;9.362;2023-03-14T14:50:55;2.47;;;2.33;;
46589;SDS011;32313;48.722;9.362;2023-03-14T14:55:54;3.07;;;2.70;;
46589;SDS011;32313;48.722;9.362;2023-03-14T14:58:29;3.20;;;2.90;;
46589;SDS011;32313;48.722;9.362;2023-03-14T15:01:03;3.37;;;3.17;;
46589;SDS011;32313;48.722;9.362;2023-03-14T15:03:50;3.23;;;2.70;;
46589;SDS011;32313;48.722;9.362;2023-03-14T15:06:17;2.90;;;2.70;;
46589;SDS011;32313;48.722;9.362;2023-03-14T15:08:44;5.13;;;2.93;;
46589;SDS011;32313;48.722;9.362;2023-03-14T15:11:22;3.57;;;3.27;;
46589;SDS011;32313;48.722;9.362;2023-03-14T15:13:50;3.80;;;3.30;;
46589;SDS011;32313;48.722;9.362;2023-03-14T15:16:17;4.90;;;3.10;;
46589;SDS011;32313;48.722;9.362;2023-03-14T15:18:47;3.33;;;3.10;;
46589;SDS011;32313;48.722;9.362;2023-03-14T15:21:20;5.00;;;2.67;;
46589;SDS011;32313;48.722;9.362;2023-03-14T15:23:47;2.80;;;2.50;;
46589;SDS011;32313;48.722;9.362;2023-03-14T15:26:13;2.47;;;2.27;;
46589;SDS011;32313;48.722;9.362;2023-03-14T15:28:41;2.67;;;2.47;;
46589;SDS011;32313;48.722;9.362;2023-03-14T15:31:10;3.80;;;2.63;;
46589;SDS011;32313;48.722;9.362;2023-03-14T15:33:37;3.00;;;2.43;;
46589;SDS011;32313;48.722;9.362;2023-03-14T15:36:03;4.87;;;2.33;;
46589;SDS011;32313;48.722;9.362;2023-03-14T15:38:29;3.23;;;2.10;;
46589;SDS011;32313;48.722;9.362;2023-03-14T15:40:55;3.17;;;1.93;;
46589;SDS011;32313;48.722;9.362;2023-03-14T15:43:21;2.43;;;2.20;;
46589;SDS011;32313;48.722;9.362;2023-03-14T15:45:46;2.50;;;2.30;;
46589;SDS011;32313;48.722;9.362;2023-03-14T15:48:16;3.03;;;2.70;;
46589;SDS011;32313;48.722;9.362;2023-03-14T15:50:44;3.63;;;2.50;;
46589;SDS011;32313;48.722;9.362;2023-03-14T15:53:10;2.40;;;2.20;;
46589;SDS011;32313;48.722;9.362;2023-03-14T15:55:36;2.60;;;2.30;;
46589;SDS011;32313;48.722;9.362;2023-03-14T15:58:02;2.80;;;2.30;;
46589;SDS011;32313;48.722;9.362;2023-03-14T16:00:28;2.47;;;2.20;;
46589;SDS011;32313;48.722;9.362;2023-03-14T16:02:54;2.57;;;2.33;;
46589;SDS011;32313;48.722;9.362;2023-03-14T16:05:20;4.77;;;2.60;;
46589;SDS011;32313;48.722;9.362;2023-03-14T16:07:46;3.07;;;2.80;;
46589;SDS011;32313;48.722;9.362;2023-03-14T16:10:12;3.37;;;2.70;;
46589;SDS011;32313;48.722;9.362;2023-03-14T16:12:40;3.63;;;3.30;;
46589;SDS011;32313;48.722;9.362;2023-03-14T16:15:06;4.07;;;3.10;;
46589;SDS011;32313;48.722;9.362;2023-03-14T16:17:33;3.47;;;3.27;;